Time;durP1;ratioP1;P1;durP2;ratioP2;P2;SDS_P1;SDS_P2;PMS_P1;PMS_P2;Temp;Humidity;BMP_temperature;BMP_pressure;BME280_temperature;BME280_humidity;BME280_pressure;Samples;Min_cycle;Max_cycle;Signal;HPM_P1;HPM_P2
2021/07/03 00:01:22;;;;;;;4.88;3.10;;;24.50;51.20;;;;;;5075141;28;20478;-48
2021/07/03 00:03:48;;;;;;;3.63;3.03;;;24.50;51.20;;;;;;5059856;28;20111;-49
2021/07/03 00:06:14;;;;;;;4.70;3.40;;;24.50;51.20;;;;;;5054494;28;20121;-50
2021/07/03 00:08:39;;;;;;;3.25;2.88;;;24.50;51.20;;;;;;5061377;28;20052;-50
2021/07/03 00:11:07;;;;;;;3.88;3.05;;;24.50;51.20;;;;;;5060394;28;20021;-49
2021/07/03 00:13:33;;;;;;;3.25;2.90;;;24.50;51.20;;;;;;5057209;28;20055;-53
2021/07/03 00:15:59;;;;;;;2.97;2.65;;;24.50;51.20;;;;;;5054990;28;20036;-57
2021/07/03 00:18:24;;;;;;;3.92;2.80;;;24.50;51.20;;;;;;5063129;28;20052;-52
2021/07/03 00:20:50;;;;;;;4.63;3.00;;;24.50;51.20;;;;;;5054775;28;20459;-49
2021/07/03 00:23:16;;;;;;;3.47;3.13;;;24.50;51.10;;;;;;5072441;28;20167;-47
2021/07/03 00:25:42;;;;;;;3.50;3.20;;;24.50;51.10;;;;;;5068194;28;20033;-47
2021/07/03 00:28:08;;;;;;;4.03;3.00;;;24.50;51.10;;;;;;5065968;28;20125;-46
2021/07/03 00:30:34;;;;;;;3.75;2.95;;;24.50;51.20;;;;;;5054805;28;20056;-47
2021/07/03 00:33:00;;;;;;;4.15;3.28;;;24.50;51.20;;;;;;5054841;28;20037;-53
2021/07/03 00:35:25;;;;;;;4.85;3.05;;;24.50;51.20;;;;;;5057362;28;20028;-46
2021/07/03 00:37:51;;;;;;;4.38;3.42;;;24.50;51.20;;;;;;5073018;28;20067;-46
2021/07/03 00:40:17;;;;;;;4.75;3.05;;;24.50;51.20;;;;;;5073382;28;20756;-46
2021/07/03 00:42:43;;;;;;;3.75;3.30;;;24.50;51.20;;;;;;5072236;28;20032;-46
2021/07/03 00:45:10;;;;;;;3.33;2.75;;;24.50;51.30;;;;;;5057964;28;20032;-46
2021/07/03 00:47:36;;;;;;;5.95;3.40;;;24.50;51.30;;;;;;5072766;28;20024;-47
2021/07/03 00:50:04;;;;;;;5.22;3.17;;;24.50;51.30;;;;;;5073033;28;20496;-54
2021/07/03 00:52:30;;;;;;;3.95;3.28;;;24.50;51.40;;;;;;5054407;28;20033;-48
2021/07/03 00:54:56;;;;;;;5.63;3.63;;;24.50;51.40;;;;;;5060870;28;20095;-49
2021/07/03 00:57:21;;;;;;;3.97;2.88;;;24.50;51.40;;;;;;5054860;28;20809;-48
2021/07/03 00:59:47;;;;;;;4.05;3.45;;;24.50;51.40;;;;;;5034910;28;20049;-50
2021/07/03 01:02:15;;;;;;;4.00;2.75;;;24.50;51.40;;;;;;5053652;28;20108;-49
2021/07/03 01:04:42;;;;;;;3.88;2.92;;;24.50;51.40;;;;;;5045312;28;20040;-49
2021/07/03 01:07:09;;;;;;;5.03;3.35;;;24.40;51.40;;;;;;5034452;28;20064;-47
2021/07/03 01:09:35;;;;;;;4.20;3.80;;;24.50;51.40;;;;;;5047910;28;20041;-46
2021/07/03 01:12:03;;;;;;;4.20;3.13;;;24.50;51.40;;;;;;5033808;28;20454;-53
2021/07/03 01:14:29;;;;;;;3.42;2.80;;;24.50;51.50;;;;;;5034193;28;20030;-46
2021/07/03 01:16:54;;;;;;;5.10;3.30;;;24.50;51.40;;;;;;5035315;28;20131;-45
2021/07/03 01:19:21;;;;;;;4.18;3.00;;;24.50;51.40;;;;;;5033636;28;20117;-47
2021/07/03 01:21:54;;;;;;;3.45;2.80;;;24.50;51.50;;;;;;5035077;28;20387;-46
2021/07/03 01:24:23;;;;;;;3.50;3.13;;;24.50;51.50;;;;;;5033223;28;20029;-47
2021/07/03 01:26:51;;;;;;;3.90;3.17;;;24.50;51.50;;;;;;5035200;28;20033;-46
2021/07/03 01:29:19;;;;;;;3.75;2.90;;;24.50;51.50;;;;;;5034887;28;20026;-46
2021/07/03 01:31:46;;;;;;;4.25;3.30;;;24.40;51.50;;;;;;5038013;28;20037;-48
2021/07/03 01:34:13;;;;;;;5.85;3.20;;;24.40;51.50;;;;;;5052386;28;20029;-46
2021/07/03 01:36:39;;;;;;;3.63;3.20;;;24.40;51.60;;;;;;5050548;28;20076;-46
2021/07/03 01:39:06;;;;;;;3.80;3.15;;;24.40;51.50;;;;;;5043669;28;20423;-47
2021/07/03 01:41:32;;;;;;;4.93;3.75;;;24.40;51.60;;;;;;5051891;28;20100;-46
2021/07/03 01:43:58;;;;;;;4.32;3.25;;;24.50;51.70;;;;;;5052133;28;20044;-48
2021/07/03 01:46:24;;;;;;;5.13;3.67;;;24.40;51.60;;;;;;5051237;28;20028;-46
2021/07/03 01:48:49;;;;;;;3.63;3.22;;;24.50;51.70;;;;;;5053232;28;20381;-46
2021/07/03 01:51:15;;;;;;;3.55;3.20;;;24.50;51.70;;;;;;5052091;28;20512;-46
2021/07/03 01:53:41;;;;;;;4.38;3.13;;;24.40;51.60;;;;;;5051174;28;20037;-46
2021/07/03 01:56:07;;;;;;;3.42;3.13;;;24.40;51.60;;;;;;5052054;28;20024;-48
2021/07/03 01:58:33;;;;;;;3.47;2.78;;;24.40;51.60;;;;;;5054532;28;20078;-47
2021/07/03 02:00:59;;;;;;;3.88;2.97;;;24.40;51.60;;;;;;5062566;28;20452;-48
2021/07/03 02:03:26;;;;;;;5.03;3.75;;;24.40;51.70;;;;;;5053652;28;20041;-49
2021/07/03 02:05:52;;;;;;;3.05;2.70;;;24.50;51.80;;;;;;5053239;28;20371;-49
2021/07/03 02:08:18;;;;;;;3.78;3.10;;;24.40;51.70;;;;;;5067303;28;20101;-46
2021/07/03 02:10:44;;;;;;;3.53;3.10;;;24.40;51.80;;;;;;5052758;28;20032;-50
2021/07/03 02:13:10;;;;;;;4.55;3.15;;;24.40;51.80;;;;;;5053430;28;20390;-51
2021/07/03 02:15:35;;;;;;;4.20;3.13;;;24.40;51.70;;;;;;5052974;28;20052;-46
2021/07/03 02:18:01;;;;;;;3.78;3.38;;;24.40;51.80;;;;;;5052755;28;20526;-54
2021/07/03 02:20:27;;;;;;;4.90;3.35;;;24.40;51.80;;;;;;5052429;28;20455;-51
2021/07/03 02:22:53;;;;;;;4.53;2.85;;;24.40;51.80;;;;;;5053251;28;20120;-52
2021/07/03 02:25:19;;;;;;;3.67;3.20;;;24.40;51.80;;;;;;5051722;28;20037;-47
2021/07/03 02:27:45;;;;;;;3.92;3.08;;;24.40;51.80;;;;;;5070669;28;20025;-46
2021/07/03 02:30:14;;;;;;;3.58;2.88;;;24.40;51.80;;;;;;5051922;28;20094;-51
2021/07/03 02:32:40;;;;;;;3.47;3.05;;;24.40;51.80;;;;;;5053797;28;20082;-48
2021/07/03 02:35:07;;;;;;;3.80;3.40;;;24.40;51.80;;;;;;5051641;28;20109;-49
2021/07/03 02:37:34;;;;;;;4.15;2.90;;;24.40;51.80;;;;;;5052603;28;20036;-47
2021/07/03 02:40:00;;;;;;;5.13;3.03;;;24.40;51.80;;;;;;5059378;28;20527;-52
2021/07/03 02:42:25;;;;;;;3.92;3.25;;;24.40;51.80;;;;;;5069815;28;20111;-53
2021/07/03 02:44:51;;;;;;;3.70;3.30;;;24.40;51.80;;;;;;5071924;28;20557;-49
2021/07/03 02:47:17;;;;;;;3.72;2.88;;;24.40;51.90;;;;;;5069651;28;20059;-50
2021/07/03 02:49:42;;;;;;;5.75;3.70;;;24.40;51.80;;;;;;5071489;28;20098;-51
2021/07/03 02:52:08;;;;;;;3.72;3.05;;;24.40;52.00;;;;;;5064648;28;20025;-47
2021/07/03 02:54:34;;;;;;;3.40;2.85;;;24.40;51.90;;;;;;5052670;28;20044;-48
2021/07/03 02:56:59;;;;;;;3.47;2.92;;;24.40;52.00;;;;;;5064711;28;20028;-49
2021/07/03 02:59:26;;;;;;;3.95;3.10;;;24.30;52.00;;;;;;5058672;28;20835;-47
2021/07/03 03:01:52;;;;;;;4.07;3.15;;;24.40;52.00;;;;;;5052094;28;20116;-49
2021/07/03 03:04:18;;;;;;;3.50;3.00;;;24.40;52.00;;;;;;5064257;28;20445;-48
2021/07/03 03:06:44;;;;;;;3.35;2.92;;;24.40;52.00;;;;;;5056003;28;20029;-50
2021/07/03 03:09:10;;;;;;;4.60;3.10;;;24.30;51.90;;;;;;5052392;28;20524;-48
2021/07/03 03:11:35;;;;;;;3.00;2.65;;;24.40;52.00;;;;;;5053119;28;20029;-49
2021/07/03 03:14:01;;;;;;;3.30;2.80;;;24.30;51.90;;;;;;5060142;28;20028;-53
2021/07/03 03:16:27;;;;;;;3.33;3.03;;;24.40;52.00;;;;;;5067758;28;20490;-51
2021/07/03 03:18:54;;;;;;;3.38;3.03;;;24.30;51.90;;;;;;5064578;28;20107;-53
2021/07/03 03:21:20;;;;;;;4.22;3.17;;;24.40;52.00;;;;;;5070167;28;20036;-53
2021/07/03 03:23:45;;;;;;;4.78;3.42;;;24.30;51.90;;;;;;5070992;28;20040;-50
2021/07/03 03:26:11;;;;;;;4.55;3.60;;;24.40;52.00;;;;;;5053702;28;20036;-50
2021/07/03 03:28:37;;;;;;;2.92;2.58;;;24.30;52.00;;;;;;5051890;28;20071;-51
2021/07/03 03:31:03;;;;;;;3.08;2.78;;;24.30;52.00;;;;;;5052668;28;20104;-52
2021/07/03 03:33:29;;;;;;;3.42;2.90;;;24.30;52.00;;;;;;5050022;28;20029;-53
2021/07/03 03:35:55;;;;;;;4.38;3.10;;;24.30;52.00;;;;;;5043481;28;20363;-49
2021/07/03 03:38:20;;;;;;;3.38;2.90;;;24.30;51.90;;;;;;5065954;28;20108;-46
2021/07/03 03:40:46;;;;;;;3.67;3.22;;;24.40;52.00;;;;;;5052959;28;20056;-51
2021/07/03 03:43:12;;;;;;;3.95;3.20;;;24.30;51.90;;;;;;5032765;28;20039;-49
2021/07/03 03:45:38;;;;;;;3.15;2.85;;;24.30;51.90;;;;;;5051849;28;20037;-49
2021/07/03 03:48:05;;;;;;;3.97;3.25;;;24.40;52.00;;;;;;5052447;28;20021;-53
2021/07/03 03:50:31;;;;;;;3.28;2.97;;;24.40;52.60;;;;;;5052580;28;20071;-47
2021/07/03 03:52:57;;;;;;;3.72;3.25;;;24.40;52.00;;;;;;5052689;28;20033;-48
2021/07/03 03:55:23;;;;;;;3.17;2.85;;;24.40;52.00;;;;;;5069317;28;20109;-48
2021/07/03 03:57:49;;;;;;;3.30;2.80;;;24.30;52.00;;;;;;5059073;28;20028;-50
2021/07/03 04:00:17;;;;;;;3.45;2.90;;;24.30;52.00;;;;;;5054768;28;20474;-47
2021/07/03 04:02:43;;;;;;;4.90;3.25;;;24.30;52.00;;;;;;5051515;28;20032;-48
2021/07/03 04:05:09;;;;;;;5.07;3.30;;;24.30;52.10;;;;;;5051933;28;20445;-46
2021/07/03 04:07:35;;;;;;;5.95;3.13;;;24.40;52.20;;;;;;5070768;28;20110;-50
2021/07/03 04:10:02;;;;;;;3.95;2.97;;;24.30;52.10;;;;;;5054954;28;20360;-50
2021/07/03 04:12:28;;;;;;;4.38;3.15;;;24.30;52.10;;;;;;5050779;28;20036;-48
2021/07/03 04:14:54;;;;;;;3.20;2.70;;;24.30;52.10;;;;;;5051668;28;20025;-50
2021/07/03 04:17:19;;;;;;;3.42;3.13;;;24.30;52.20;;;;;;5050565;28;20471;-47
2021/07/03 04:19:45;;;;;;;2.83;2.53;;;24.30;52.20;;;;;;5052329;28;20033;-49
2021/07/03 04:22:11;;;;;;;3.47;2.88;;;24.30;52.10;;;;;;5050236;28;20033;-49
2021/07/03 04:24:36;;;;;;;3.60;3.00;;;24.40;52.20;;;;;;5050956;28;20118;-48
2021/07/03 04:27:03;;;;;;;3.63;2.92;;;24.40;52.10;;;;;;5050780;28;20455;-55
2021/07/03 04:29:29;;;;;;;3.83;2.85;;;24.40;52.00;;;;;;5065987;28;20148;-50
2021/07/03 04:31:55;;;;;;;3.70;3.03;;;24.40;52.20;;;;;;5055586;28;20107;-48
2021/07/03 04:34:21;;;;;;;4.38;2.92;;;24.40;52.30;;;;;;5067175;28;20111;-48
2021/07/03 04:36:46;;;;;;;4.85;3.03;;;24.40;53.10;;;;;;5052391;28;20033;-52
2021/07/03 04:39:12;;;;;;;3.33;2.72;;;24.40;52.90;;;;;;5062453;28;20529;-50
2021/07/03 04:41:38;;;;;;;4.88;2.95;;;24.40;53.00;;;;;;5054713;28;20526;-46
2021/07/03 04:44:06;;;;;;;4.53;3.08;;;24.50;53.00;;;;;;5057103;28;20033;-46
2021/07/03 04:46:32;;;;;;;3.83;2.85;;;24.50;53.00;;;;;;5071463;28;20085;-46
2021/07/03 04:48:58;;;;;;;4.72;3.30;;;24.50;52.90;;;;;;5073399;28;20028;-46
2021/07/03 04:51:24;;;;;;;5.75;2.92;;;24.50;52.90;;;;;;5055158;28;20389;-46
2021/07/03 04:53:50;;;;;;;4.65;2.80;;;24.50;52.90;;;;;;5074033;28;20024;-47
2021/07/03 04:56:17;;;;;;;4.80;3.22;;;24.50;52.90;;;;;;5072894;28;20104;-46
2021/07/03 04:58:43;;;;;;;3.22;2.92;;;24.50;52.90;;;;;;5071735;28;20032;-51
2021/07/03 05:01:09;;;;;;;4.65;2.92;;;24.50;52.90;;;;;;5058127;28;20035;-55
2021/07/03 05:03:34;;;;;;;3.33;2.88;;;24.50;53.00;;;;;;5059759;28;20032;-49
2021/07/03 05:06:00;;;;;;;3.58;2.70;;;24.60;52.90;;;;;;5063717;28;20036;-48
2021/07/03 05:08:25;;;;;;;4.35;3.50;;;24.60;53.00;;;;;;5055878;28;20609;-50
2021/07/03 05:10:51;;;;;;;4.63;3.30;;;24.60;52.90;;;;;;5064292;28;20036;-48
2021/07/03 05:13:17;;;;;;;3.50;2.88;;;24.60;52.90;;;;;;5072645;28;20032;-48
2021/07/03 05:15:42;;;;;;;3.30;2.55;;;24.60;52.90;;;;;;5073509;28;20078;-52
2021/07/03 05:18:08;;;;;;;4.35;3.05;;;24.60;52.90;;;;;;5071414;28;20451;-53
2021/07/03 05:20:34;;;;;;;3.40;2.95;;;24.60;52.90;;;;;;5055148;28;20469;-49
2021/07/03 05:22:59;;;;;;;3.80;3.08;;;24.60;52.90;;;;;;5067613;28;20028;-48
2021/07/03 05:25:25;;;;;;;3.35;2.88;;;24.60;52.90;;;;;;5071039;28;20040;-50
2021/07/03 05:27:51;;;;;;;4.90;2.88;;;24.60;52.90;;;;;;5074397;28;20384;-47
2021/07/03 05:30:16;;;;;;;4.70;3.38;;;24.60;52.90;;;;;;5052970;28;20028;-51
2021/07/03 05:32:42;;;;;;;4.65;3.15;;;24.60;53.00;;;;;;5068153;28;20067;-52
2021/07/03 05:35:08;;;;;;;3.13;2.45;;;24.60;53.00;;;;;;5068976;28;20454;-54
2021/07/03 05:37:34;;;;;;;3.83;3.10;;;24.60;53.00;;;;;;5071648;28;20033;-49
2021/07/03 05:40:00;;;;;;;4.28;3.05;;;24.60;53.10;;;;;;5067545;28;20051;-52
2021/07/03 05:42:25;;;;;;;3.20;2.55;;;24.60;53.10;;;;;;5066488;28;20423;-48
2021/07/03 05:44:51;;;;;;;3.53;2.72;;;24.60;53.10;;;;;;5070880;28;20056;-52
2021/07/03 05:47:20;;;;;;;4.22;3.10;;;24.60;53.10;;;;;;5067621;28;20162;-50
2021/07/03 05:49:45;;;;;;;4.43;3.03;;;24.70;53.20;;;;;;5071640;28;20017;-48
2021/07/03 05:52:11;;;;;;;3.83;2.80;;;24.70;53.20;;;;;;5069115;28;20085;-55
2021/07/03 05:54:37;;;;;;;3.58;3.20;;;24.60;53.20;;;;;;5069425;28;20028;-47
2021/07/03 05:57:03;;;;;;;3.28;2.60;;;24.60;53.20;;;;;;5070897;28;20031;-50
2021/07/03 05:59:30;;;;;;;3.67;3.03;;;24.70;53.20;;;;;;5063082;28;20052;-51
2021/07/03 06:01:56;;;;;;;3.13;2.83;;;24.70;53.20;;;;;;5053580;28;20175;-46
2021/07/03 06:04:22;;;;;;;3.50;2.97;;;24.70;53.20;;;;;;5069662;28;20104;-48
2021/07/03 06:06:48;;;;;;;4.07;3.15;;;24.70;53.40;;;;;;5068920;28;20028;-52
2021/07/03 06:09:14;;;;;;;5.63;2.80;;;24.60;53.30;;;;;;5068408;28;20025;-50
2021/07/03 06:11:39;;;;;;;3.47;2.58;;;24.60;53.60;;;;;;5070447;28;20351;-54
2021/07/03 06:14:05;;;;;;;3.88;3.17;;;24.70;53.70;;;;;;5067906;28;20064;-50
2021/07/03 06:16:31;;;;;;;3.38;2.75;;;24.70;53.70;;;;;;5069795;28;20025;-51
2021/07/03 06:18:56;;;;;;;6.05;3.15;;;24.70;53.60;;;;;;5068926;28;20040;-49
2021/07/03 06:21:22;;;;;;;3.40;3.08;;;24.70;53.70;;;;;;5067357;28;20139;-50
2021/07/03 06:23:48;;;;;;;3.72;3.03;;;24.70;53.50;;;;;;5068960;28;20029;-49
2021/07/03 06:26:14;;;;;;;5.72;2.95;;;24.70;53.70;;;;;;5067251;28;20020;-51
2021/07/03 06:28:39;;;;;;;3.75;2.92;;;24.70;53.60;;;;;;5069332;28;20031;-50
2021/07/03 06:31:05;;;;;;;3.67;2.97;;;24.80;53.70;;;;;;5070622;28;20119;-52
2021/07/03 06:33:31;;;;;;;3.40;2.70;;;24.70;53.80;;;;;;5067786;28;20115;-51
2021/07/03 06:35:58;;;;;;;4.15;2.80;;;24.70;53.80;;;;;;5067564;28;20024;-50
2021/07/03 06:38:23;;;;;;;4.18;3.00;;;24.70;53.80;;;;;;5070015;28;20170;-51
2021/07/03 06:40:49;;;;;;;4.00;2.80;;;24.70;54.00;;;;;;5068476;28;20519;-53
2021/07/03 06:43:15;;;;;;;3.65;3.17;;;24.70;54.30;;;;;;5067947;28;20462;-50
2021/07/03 06:45:40;;;;;;;3.13;2.60;;;24.60;54.20;;;;;;5068677;28;20025;-48
2021/07/03 06:48:11;;;;;;;3.95;3.00;;;24.70;54.10;;;;;;5066888;28;20505;-53
2021/07/03 06:50:37;;;;;;;4.75;2.80;;;24.70;54.00;;;;;;5068172;28;20043;-47
2021/07/03 06:53:03;;;;;;;3.15;2.85;;;24.70;54.00;;;;;;5069725;28;20119;-50
2021/07/03 06:55:29;;;;;;;3.33;2.95;;;24.70;54.10;;;;;;5047746;28;20044;-53
2021/07/03 06:57:55;;;;;;;3.35;2.90;;;24.70;54.20;;;;;;5050833;28;20028;-48
2021/07/03 07:00:21;;;;;;;3.13;2.42;;;24.70;54.10;;;;;;5061688;28;20447;-52
2021/07/03 07:02:47;;;;;;;3.72;2.80;;;24.70;54.20;;;;;;5068250;28;20115;-48
2021/07/03 07:05:13;;;;;;;3.40;2.80;;;24.70;54.30;;;;;;5064126;28;20036;-55
2021/07/03 07:07:38;;;;;;;3.42;2.70;;;24.70;54.30;;;;;;5066541;28;20031;-52
2021/07/03 07:10:05;;;;;;;3.78;3.25;;;24.70;54.30;;;;;;5068628;28;20453;-48
2021/07/03 07:12:31;;;;;;;3.45;2.67;;;24.70;54.70;;;;;;5055062;28;20644;-53
2021/07/03 07:14:57;;;;;;;4.15;3.00;;;24.70;54.70;;;;;;5037036;28;20119;-46
2021/07/03 07:17:23;;;;;;;3.28;2.88;;;24.80;54.50;;;;;;5079068;28;20081;-50
2021/07/03 07:19:49;;;;;;;4.15;2.83;;;24.80;54.40;;;;;;5052101;28;20128;-46
2021/07/03 07:22:15;;;;;;;4.78;3.15;;;24.80;54.30;;;;;;5066968;28;20051;-51
2021/07/03 07:24:41;;;;;;;6.60;4.60;;;24.70;53.90;;;;;;5071298;28;20457;-51
2021/07/03 07:27:07;;;;;;;6.43;4.50;;;24.60;52.80;;;;;;5068893;28;20382;-46
2021/07/03 07:29:33;;;;;;;5.28;4.25;;;24.50;53.80;;;;;;5073240;28;20035;-52
2021/07/03 07:31:59;;;;;;;6.68;5.13;;;24.50;53.80;;;;;;5055897;28;20070;-54
2021/07/03 07:34:25;;;;;;;10.00;5.65;;;24.30;53.40;;;;;;5068473;28;20474;-53
2021/07/03 07:36:51;;;;;;;8.88;4.82;;;24.00;54.00;;;;;;5062050;28;20029;-48
2021/07/03 07:39:17;;;;;;;9.50;5.03;;;23.70;54.40;;;;;;5064520;28;20036;-55
2021/07/03 07:41:43;;;;;;;7.18;5.55;;;23.70;55.00;;;;;;5067736;28;20028;-50
2021/07/03 07:44:08;;;;;;;7.47;5.38;;;23.60;55.00;;;;;;5070830;28;20058;-54
2021/07/03 07:46:34;;;;;;;9.48;5.68;;;23.50;55.10;;;;;;5071586;28;20035;-50
2021/07/03 07:49:00;;;;;;;8.75;5.28;;;23.40;54.90;;;;;;5074564;28;20107;-53
2021/07/03 07:51:26;;;;;;;7.93;4.57;;;23.40;55.20;;;;;;5068955;28;20388;-51
2021/07/03 07:53:52;;;;;;;9.45;5.00;;;23.40;55.30;;;;;;5048198;28;20350;-48
2021/07/03 07:56:18;;;;;;;8.50;5.80;;;23.40;55.50;;;;;;5060671;28;20111;-54
2021/07/03 07:58:45;;;;;;;6.20;5.00;;;23.40;55.60;;;;;;5068953;28;20086;-48
2021/07/03 08:01:13;;;;;;;6.60;5.20;;;23.50;55.60;;;;;;5069868;28;20037;-59
2021/07/03 08:03:40;;;;;;;10.00;4.63;;;23.40;55.80;;;;;;5069789;28;20028;-52
2021/07/03 08:06:05;;;;;;;7.55;5.30;;;23.50;55.60;;;;;;5069165;28;20035;-51
2021/07/03 08:08:31;;;;;;;7.97;5.00;;;23.50;55.30;;;;;;5063107;28;20029;-52
2021/07/03 08:10:57;;;;;;;6.72;4.70;;;23.50;55.10;;;;;;5051832;28;20063;-50
2021/07/03 08:13:23;;;;;;;6.50;5.13;;;23.50;54.80;;;;;;5054585;28;20040;-47
2021/07/03 08:15:50;;;;;;;7.50;4.68;;;23.50;55.10;;;;;;5056389;28;20389;-51
2021/07/03 08:18:16;;;;;;;7.53;4.32;;;23.60;55.20;;;;;;5054143;28;20416;-54
2021/07/03 08:20:42;;;;;;;5.57;4.20;;;23.60;52.10;;;;;;5051904;28;20032;-55
2021/07/03 08:23:08;;;;;;;5.63;4.38;;;23.50;51.30;;;;;;5055431;28;20390;-52
2021/07/03 08:25:34;;;;;;;8.52;3.90;;;23.60;51.00;;;;;;5055697;28;20144;-53
2021/07/03 08:28:00;;;;;;;4.70;3.97;;;23.70;51.40;;;;;;5055252;28;20033;-49
2021/07/03 08:30:28;;;;;;;5.60;4.28;;;23.70;51.70;;;;;;5065718;28;20382;-53
2021/07/03 08:32:54;;;;;;;5.38;4.15;;;23.70;50.70;;;;;;5077530;28;20035;-52
2021/07/03 08:35:20;;;;;;;9.27;4.38;;;23.90;51.20;;;;;;5054124;28;20051;-56
2021/07/03 08:37:45;;;;;;;7.10;4.32;;;23.90;50.90;;;;;;5071256;28;20053;-54
2021/07/03 08:40:12;;;;;;;5.53;4.03;;;23.90;49.70;;;;;;5054764;28;20483;-52
2021/07/03 08:42:38;;;;;;;6.70;4.03;;;24.00;50.10;;;;;;5055051;28;20033;-53
2021/07/03 08:45:05;;;;;;;4.32;3.72;;;23.90;49.90;;;;;;5055079;28;20382;-51
2021/07/03 08:47:30;;;;;;;6.25;4.22;;;23.90;50.00;;;;;;5069310;28;20021;-46
2021/07/03 08:50:00;;;;;;;6.43;4.68;;;23.90;50.30;;;;;;5064709;28;20529;-52
2021/07/03 08:52:26;;;;;;;6.30;4.00;;;23.90;50.30;;;;;;5054714;28;20070;-49
2021/07/03 08:55:22;;;;;;;4.82;4.07;;;23.90;49.70;;;;;;5072786;28;20036;-53
2021/07/03 08:57:51;;;;;;;6.47;4.53;;;24.00;50.20;;;;;;5070447;28;20029;-50
2021/07/03 09:00:39;;;;;;;4.70;3.88;;;24.20;50.30;;;;;;5035257;28;20110;-54
2021/07/03 09:03:22;;;;;;;5.15;4.30;;;24.20;48.70;;;;;;5065683;28;20119;-49
2021/07/03 09:05:56;;;;;;;4.47;4.03;;;24.30;48.70;;;;;;5058275;28;20049;-50
2021/07/03 09:08:26;;;;;;;5.13;3.75;;;24.30;48.70;;;;;;5065993;28;20037;-47
2021/07/03 09:11:07;;;;;;;7.68;4.57;;;24.40;48.60;;;;;;5054244;28;20032;-52
2021/07/03 09:13:34;;;;;;;6.32;4.40;;;24.50;48.80;;;;;;5053509;28;20036;-50
2021/07/03 09:16:00;;;;;;;10.65;4.43;;;24.50;48.80;;;;;;5055221;28;20017;-51
2021/07/03 09:18:27;;;;;;;5.22;4.40;;;24.50;49.10;;;;;;5067521;28;20493;-47
2021/07/03 09:20:56;;;;;;;6.13;4.25;;;24.50;50.30;;;;;;5062432;28;20086;-54
2021/07/03 09:23:23;;;;;;;7.70;4.30;;;24.50;49.60;;;;;;5036715;28;20451;-55
2021/07/03 09:25:56;;;;;;;8.05;4.45;;;24.60;49.30;;;;;;5069116;28;20047;-49
2021/07/03 09:28:24;;;;;;;8.68;4.43;;;24.60;49.90;;;;;;5065040;28;20025;-58
2021/07/03 09:30:54;;;;;;;6.03;4.20;;;24.60;49.90;;;;;;5071817;28;20417;-44
2021/07/03 09:33:28;;;;;;;6.95;5.13;;;24.60;49.90;;;;;;5071722;28;20037;-47
2021/07/03 09:36:01;;;;;;;7.93;4.78;;;24.70;50.40;;;;;;5073006;28;20025;-51
2021/07/03 09:38:36;;;;;;;10.50;4.50;;;24.70;47.60;;;;;;5055884;28;20103;-49
2021/07/03 09:41:15;;;;;;;6.55;4.55;;;24.70;49.00;;;;;;5054601;28;20033;-48
2021/07/03 09:43:50;;;;;;;5.15;3.75;;;24.70;48.40;;;;;;5054340;28;20037;-47
2021/07/03 09:46:29;;;;;;;5.47;4.07;;;24.70;48.30;;;;;;5056745;28;20033;-57
2021/07/03 09:49:06;;;;;;;6.47;4.15;;;24.80;48.30;;;;;;5059462;28;20108;-51
2021/07/03 09:51:42;;;;;;;8.00;4.65;;;24.80;48.60;;;;;;5052625;28;20025;-52
2021/07/03 09:54:10;;;;;;;8.18;4.70;;;24.70;48.60;;;;;;5053315;28;20040;-52
2021/07/03 09:56:36;;;;;;;6.90;3.83;;;24.70;48.90;;;;;;5063923;28;20104;-52
2021/07/03 09:59:03;;;;;;;7.90;4.18;;;24.70;48.90;;;;;;5064296;28;20477;-54
2021/07/03 10:01:28;;;;;;;7.78;4.25;;;24.80;48.90;;;;;;5060858;28;20054;-46
2021/07/03 10:03:55;;;;;;;5.38;3.60;;;24.80;48.00;;;;;;5071998;28;20532;-53
2021/07/03 10:06:50;;;;;;;6.50;4.40;;;24.70;47.70;;;;;;5068471;28;20441;-51
2021/07/03 10:09:43;;;;;;;9.18;4.47;;;24.60;48.30;;;;;;5049873;28;20040;-58
2021/07/03 10:12:12;;;;;;;8.60;4.25;;;24.70;48.50;;;;;;5053063;28;20156;-57
2021/07/03 10:14:39;;;;;;;6.18;4.50;;;24.70;48.20;;;;;;5070823;28;20025;-54
2021/07/03 10:17:06;;;;;;;5.05;3.90;;;24.70;48.30;;;;;;5068073;28;20028;-52
2021/07/03 10:19:46;;;;;;;7.63;4.03;;;24.70;48.10;;;;;;5068860;28;20051;-54
2021/07/03 10:22:17;;;;;;;5.68;3.72;;;24.70;47.70;;;;;;5072450;28;20017;-48
2021/07/03 10:24:50;;;;;;;5.07;3.75;;;24.60;46.20;;;;;;5071955;28;20099;-49
2021/07/03 10:27:18;;;;;;;5.97;3.72;;;24.60;47.40;;;;;;5079384;28;20107;-56
2021/07/03 10:29:45;;;;;;;5.28;3.83;;;24.60;47.30;;;;;;5071397;28;20032;-47
2021/07/03 10:32:21;;;;;;;6.05;3.70;;;24.70;47.30;;;;;;5072273;28;20491;-52
2021/07/03 10:34:47;;;;;;;7.78;4.15;;;24.60;47.80;;;;;;5071555;28;20496;-50
2021/07/03 10:37:17;;;;;;;4.70;3.50;;;24.70;47.70;;;;;;5056989;28;20025;-50
2021/07/03 10:39:44;;;;;;;6.63;3.88;;;24.70;48.10;;;;;;5058702;28;20056;-47
2021/07/03 10:42:10;;;;;;;8.02;4.85;;;24.70;48.50;;;;;;5052629;28;20028;-48
2021/07/03 10:44:43;;;;;;;8.23;3.83;;;24.70;48.50;;;;;;5051541;28;20367;-47
2021/07/03 10:47:11;;;;;;;6.85;4.03;;;24.70;48.50;;;;;;5066049;28;20040;-50
2021/07/03 10:49:38;;;;;;;4.32;3.25;;;24.70;48.10;;;;;;5052579;28;20095;-50
2021/07/03 10:52:15;;;;;;;5.10;3.25;;;24.80;47.80;;;;;;5052382;28;20029;-53
2021/07/03 10:54:41;;;;;;;5.97;3.47;;;24.80;47.80;;;;;;5052349;28;20044;-48
2021/07/03 10:57:09;;;;;;;7.55;3.60;;;24.70;47.50;;;;;;5073504;28;20089;-49
2021/07/03 10:59:38;;;;;;;4.88;3.45;;;24.70;45.50;;;;;;5061082;28;20052;-48
2021/07/03 11:02:07;;;;;;;4.22;3.08;;;24.60;45.90;;;;;;5056807;28;20024;-53
2021/07/03 11:04:43;;;;;;;4.38;3.40;;;24.60;45.80;;;;;;5055108;28;20021;-56
2021/07/03 11:07:11;;;;;;;5.45;3.58;;;24.70;45.30;;;;;;5052355;28;20028;-53
2021/07/03 11:09:37;;;;;;;3.97;3.42;;;24.70;45.60;;;;;;5060035;28;20505;-47
2021/07/03 11:12:15;;;;;;;5.13;2.80;;;24.70;46.40;;;;;;5070892;28;20074;-52
2021/07/03 11:14:51;;;;;;;5.20;3.15;;;24.80;45.00;;;;;;5070584;28;20036;-48
2021/07/03 11:17:18;;;;;;;4.85;3.30;;;24.80;44.70;;;;;;5045223;28;20351;-48
2021/07/03 11:19:47;;;;;;;4.03;3.03;;;24.80;44.50;;;;;;5052255;28;20029;-57
2021/07/03 11:22:14;;;;;;;4.07;2.95;;;24.90;44.20;;;;;;5033827;28;20356;-53
2021/07/03 11:24:54;;;;;;;6.22;3.55;;;24.90;44.40;;;;;;5067992;28;20036;-46
2021/07/03 11:27:34;;;;;;;5.75;3.55;;;24.80;43.80;;;;;;5068703;28;20065;-57
2021/07/03 11:30:03;;;;;;;4.93;3.05;;;24.80;44.30;;;;;;5066653;28;20020;-53
2021/07/03 11:32:29;;;;;;;4.65;3.67;;;24.80;44.50;;;;;;5057567;28;20098;-49
2021/07/03 11:34:58;;;;;;;5.43;3.50;;;24.80;44.80;;;;;;5071138;28;20401;-50
2021/07/03 11:37:32;;;;;;;4.15;3.15;;;24.80;45.10;;;;;;5061620;28;20444;-53
2021/07/03 11:40:01;;;;;;;3.35;2.60;;;24.80;45.30;;;;;;5062013;28;20531;-52
2021/07/03 11:42:31;;;;;;;5.53;3.20;;;24.80;45.60;;;;;;5070439;28;20028;-47
2021/07/03 11:44:57;;;;;;;7.25;3.45;;;24.90;45.40;;;;;;5053853;28;20374;-48
2021/07/03 11:47:36;;;;;;;5.43;3.55;;;24.90;45.00;;;;;;5073006;28;20113;-50
2021/07/03 11:50:05;;;;;;;5.70;3.40;;;25.00;44.90;;;;;;5051325;28;20116;-48
2021/07/03 11:52:44;;;;;;;4.00;3.08;;;25.00;44.90;;;;;;5061503;28;20043;-48
2021/07/03 11:55:10;;;;;;;5.95;3.42;;;25.00;44.90;;;;;;5046259;28;20028;-52
2021/07/03 11:57:40;;;;;;;3.80;2.95;;;25.00;45.00;;;;;;5068025;28;20131;-57
2021/07/03 12:00:10;;;;;;;5.43;3.70;;;25.00;44.80;;;;;;5055811;28;20037;-52
2021/07/03 12:02:36;;;;;;;4.75;3.22;;;25.10;44.10;;;;;;5063403;28;20108;-55
2021/07/03 12:05:03;;;;;;;3.97;3.00;;;25.10;44.00;;;;;;5064163;28;20470;-57
2021/07/03 12:07:29;;;;;;;4.65;3.42;;;25.20;44.10;;;;;;5072156;28;20044;-53
2021/07/03 12:10:06;;;;;;;4.18;3.30;;;25.30;44.10;;;;;;5061143;28;20462;-49
2021/07/03 12:12:32;;;;;;;6.47;3.70;;;25.30;44.60;;;;;;5036692;28;20120;-52
2021/07/03 12:15:04;;;;;;;4.53;3.00;;;25.30;44.30;;;;;;5066642;28;20571;-49
2021/07/03 12:17:30;;;;;;;3.67;2.85;;;25.20;45.30;;;;;;5072070;28;20104;-49
2021/07/03 12:20:04;;;;;;;3.67;2.75;;;25.10;46.10;;;;;;5045151;28;20174;-52
2021/07/03 12:22:30;;;;;;;3.50;3.20;;;25.00;46.40;;;;;;5054735;28;20096;-50
2021/07/03 12:24:55;;;;;;;4.05;2.90;;;25.00;46.30;;;;;;5074166;28;20115;-48
2021/07/03 12:27:23;;;;;;;3.45;2.78;;;25.00;46.50;;;;;;5073699;28;20363;-58
2021/07/03 12:29:48;;;;;;;3.75;3.00;;;25.00;46.70;;;;;;5074491;28;20032;-51
2021/07/03 12:32:14;;;;;;;3.35;2.75;;;25.00;46.70;;;;;;5073993;28;20489;-47
2021/07/03 12:34:41;;;;;;;3.17;2.65;;;25.00;46.80;;;;;;5063589;28;20032;-49
2021/07/03 12:37:11;;;;;;;5.13;3.00;;;25.00;46.90;;;;;;5073696;28;20040;-50
2021/07/03 12:39:39;;;;;;;3.50;2.75;;;25.00;47.00;;;;;;5072785;28;20081;-53
2021/07/03 12:42:12;;;;;;;4.75;2.90;;;25.00;47.10;;;;;;5056799;28;20029;-53
2021/07/03 12:44:43;;;;;;;3.95;3.20;;;25.00;47.10;;;;;;5057623;28;20037;-52
2021/07/03 12:47:11;;;;;;;3.25;2.72;;;25.00;47.20;;;;;;5067579;28;20371;-51